sensor_id;sensor_type;location;lat;lon;timestamp;P1;durP1;ratioP1;P2;durP2;ratioP2
41687;SDS011;27371;42.686;23.362;2022-12-05T00:00:21;11.23;;;7.40;;
41687;SDS011;27371;42.686;23.362;2022-12-05T00:02:47;12.23;;;8.40;;
41687;SDS011;27371;42.686;23.362;2022-12-05T00:05:12;11.70;;;6.90;;
41687;SDS011;27371;42.686;23.362;2022-12-05T00:07:38;9.45;;;6.55;;
41687;SDS011;27371;42.686;23.362;2022-12-05T00:10:04;11.68;;;7.47;;
41687;SDS011;27371;42.686;23.362;2022-12-05T00:12:31;12.10;;;7.50;;
41687;SDS011;27371;42.686;23.362;2022-12-05T00:14:56;13.52;;;8.43;;
41687;SDS011;27371;42.686;23.362;2022-12-05T00:17:22;12.95;;;7.25;;
41687;SDS011;27371;42.686;23.362;2022-12-05T00:19:47;10.85;;;7.47;;
41687;SDS011;27371;42.686;23.362;2022-12-05T00:22:13;11.43;;;7.43;;
41687;SDS011;27371;42.686;23.362;2022-12-05T00:24:38;12.70;;;7.40;;
41687;SDS011;27371;42.686;23.362;2022-12-05T00:27:04;12.52;;;7.10;;
41687;SDS011;27371;42.686;23.362;2022-12-05T00:29:29;12.63;;;7.25;;
41687;SDS011;27371;42.686;23.362;2022-12-05T00:31:55;11.98;;;6.70;;
41687;SDS011;27371;42.686;23.362;2022-12-05T00:34:20;13.50;;;7.53;;
41687;SDS011;27371;42.686;23.362;2022-12-05T00:36:46;12.40;;;7.45;;
41687;SDS011;27371;42.686;23.362;2022-12-05T00:39:11;12.80;;;7.57;;
41687;SDS011;27371;42.686;23.362;2022-12-05T00:41:39;11.75;;;8.20;;
41687;SDS011;27371;42.686;23.362;2022-12-05T00:44:05;13.25;;;7.97;;
41687;SDS011;27371;42.686;23.362;2022-12-05T00:46:31;13.95;;;8.00;;
41687;SDS011;27371;42.686;23.362;2022-12-05T00:48:57;15.25;;;7.75;;
41687;SDS011;27371;42.686;23.362;2022-12-05T00:51:25;14.55;;;8.95;;
41687;SDS011;27371;42.686;23.362;2022-12-05T00:53:52;13.68;;;8.13;;
41687;SDS011;27371;42.686;23.362;2022-12-05T00:56:22;14.23;;;9.15;;
41687;SDS011;27371;42.686;23.362;2022-12-05T00:58:48;11.68;;;7.72;;
41687;SDS011;27371;42.686;23.362;2022-12-05T01:06:21;13.90;;;8.07;;
41687;SDS011;27371;42.686;23.362;2022-12-05T01:08:48;11.57;;;7.63;;
41687;SDS011;27371;42.686;23.362;2022-12-05T01:11:15;17.55;;;8.82;;
41687;SDS011;27371;42.686;23.362;2022-12-05T01:13:42;14.35;;;9.40;;
41687;SDS011;27371;42.686;23.362;2022-12-05T01:16:18;13.15;;;8.20;;
41687;SDS011;27371;42.686;23.362;2022-12-05T01:18:46;14.48;;;8.20;;
41687;SDS011;27371;42.686;23.362;2022-12-05T01:21:11;12.20;;;7.70;;
41687;SDS011;27371;42.686;23.362;2022-12-05T01:23:37;13.57;;;7.80;;
41687;SDS011;27371;42.686;23.362;2022-12-05T01:26:06;12.68;;;7.88;;
41687;SDS011;27371;42.686;23.362;2022-12-05T01:28:37;14.10;;;8.23;;
41687;SDS011;27371;42.686;23.362;2022-12-05T01:31:07;14.38;;;9.10;;
41687;SDS011;27371;42.686;23.362;2022-12-05T01:33:36;14.07;;;8.82;;
41687;SDS011;27371;42.686;23.362;2022-12-05T01:36:02;16.63;;;8.80;;
41687;SDS011;27371;42.686;23.362;2022-12-05T01:38:28;14.38;;;8.27;;
41687;SDS011;27371;42.686;23.362;2022-12-05T01:41:00;13.85;;;8.95;;
41687;SDS011;27371;42.686;23.362;2022-12-05T01:43:27;12.77;;;8.90;;
41687;SDS011;27371;42.686;23.362;2022-12-05T01:45:53;14.48;;;9.20;;
41687;SDS011;27371;42.686;23.362;2022-12-05T01:48:24;15.23;;;9.43;;
41687;SDS011;27371;42.686;23.362;2022-12-05T01:50:52;15.30;;;9.35;;
41687;SDS011;27371;42.686;23.362;2022-12-05T01:53:17;15.05;;;9.27;;
41687;SDS011;27371;42.686;23.362;2022-12-05T01:55:44;13.98;;;8.43;;
41687;SDS011;27371;42.686;23.362;2022-12-05T01:58:11;15.13;;;8.77;;
41687;SDS011;27371;42.686;23.362;2022-12-05T02:00:38;13.73;;;9.15;;
41687;SDS011;27371;42.686;23.362;2022-12-05T02:03:05;15.38;;;8.50;;
41687;SDS011;27371;42.686;23.362;2022-12-05T02:05:34;13.55;;;8.15;;
41687;SDS011;27371;42.686;23.362;2022-12-05T02:08:05;13.60;;;8.90;;
41687;SDS011;27371;42.686;23.362;2022-12-05T02:10:54;15.48;;;8.90;;
41687;SDS011;27371;42.686;23.362;2022-12-05T02:30:05;15.43;;;8.73;;
41687;SDS011;27371;42.686;23.362;2022-12-05T02:43:58;14.68;;;9.00;;
41687;SDS011;27371;42.686;23.362;2022-12-05T02:46:29;16.08;;;8.68;;
41687;SDS011;27371;42.686;23.362;2022-12-05T02:49:01;13.05;;;8.43;;
41687;SDS011;27371;42.686;23.362;2022-12-05T02:51:34;11.85;;;7.65;;
41687;SDS011;27371;42.686;23.362;2022-12-05T02:54:05;13.63;;;8.52;;
41687;SDS011;27371;42.686;23.362;2022-12-05T02:56:35;12.95;;;7.50;;
41687;SDS011;27371;42.686;23.362;2022-12-05T02:59:01;11.40;;;7.70;;
41687;SDS011;27371;42.686;23.362;2022-12-05T03:01:29;12.35;;;7.15;;
41687;SDS011;27371;42.686;23.362;2022-12-05T03:03:57;14.40;;;8.60;;
41687;SDS011;27371;42.686;23.362;2022-12-05T03:06:25;13.25;;;8.10;;
41687;SDS011;27371;42.686;23.362;2022-12-05T03:08:57;13.82;;;8.13;;
41687;SDS011;27371;42.686;23.362;2022-12-05T03:11:27;13.23;;;7.97;;
41687;SDS011;27371;42.686;23.362;2022-12-05T03:13:59;10.70;;;7.18;;
41687;SDS011;27371;42.686;23.362;2022-12-05T03:16:30;12.98;;;7.93;;
41687;SDS011;27371;42.686;23.362;2022-12-05T03:19:11;13.20;;;8.07;;
41687;SDS011;27371;42.686;23.362;2022-12-05T03:21:46;13.02;;;7.90;;
41687;SDS011;27371;42.686;23.362;2022-12-05T03:24:16;13.25;;;7.63;;
41687;SDS011;27371;42.686;23.362;2022-12-05T03:29:33;13.60;;;7.90;;
41687;SDS011;27371;42.686;23.362;2022-12-05T03:35:00;11.90;;;7.75;;
41687;SDS011;27371;42.686;23.362;2022-12-05T03:40:09;15.70;;;8.00;;
41687;SDS011;27371;42.686;23.362;2022-12-05T03:42:35;15.30;;;8.10;;
41687;SDS011;27371;42.686;23.362;2022-12-05T03:45:06;13.18;;;7.82;;
41687;SDS011;27371;42.686;23.362;2022-12-05T03:47:45;13.75;;;8.23;;
41687;SDS011;27371;42.686;23.362;2022-12-05T03:50:22;13.38;;;8.18;;
41687;SDS011;27371;42.686;23.362;2022-12-05T03:52:53;15.85;;;9.85;;
41687;SDS011;27371;42.686;23.362;2022-12-05T03:55:42;13.60;;;7.72;;
41687;SDS011;27371;42.686;23.362;2022-12-05T03:58:16;15.93;;;8.43;;
41687;SDS011;27371;42.686;23.362;2022-12-05T04:00:47;13.05;;;8.02;;
41687;SDS011;27371;42.686;23.362;2022-12-05T04:03:17;13.82;;;8.02;;
41687;SDS011;27371;42.686;23.362;2022-12-05T04:06:00;15.10;;;7.85;;
41687;SDS011;27371;42.686;23.362;2022-12-05T04:08:28;11.23;;;6.47;;
41687;SDS011;27371;42.686;23.362;2022-12-05T04:11:03;15.30;;;8.88;;
41687;SDS011;27371;42.686;23.362;2022-12-05T04:13:38;15.18;;;9.35;;
41687;SDS011;27371;42.686;23.362;2022-12-05T04:16:19;14.85;;;8.35;;
41687;SDS011;27371;42.686;23.362;2022-12-05T04:21:42;14.10;;;9.10;;
41687;SDS011;27371;42.686;23.362;2022-12-05T04:24:12;17.13;;;8.52;;
41687;SDS011;27371;42.686;23.362;2022-12-05T04:27:09;16.02;;;9.20;;
41687;SDS011;27371;42.686;23.362;2022-12-05T04:29:41;15.48;;;9.20;;
41687;SDS011;27371;42.686;23.362;2022-12-05T04:32:12;15.02;;;8.45;;
41687;SDS011;27371;42.686;23.362;2022-12-05T04:34:38;16.85;;;9.13;;
41687;SDS011;27371;42.686;23.362;2022-12-05T04:37:09;15.68;;;9.75;;
41687;SDS011;27371;42.686;23.362;2022-12-05T04:40:01;13.15;;;7.90;;
41687;SDS011;27371;42.686;23.362;2022-12-05T04:42:28;16.08;;;9.25;;
41687;SDS011;27371;42.686;23.362;2022-12-05T04:45:06;14.00;;;8.65;;
41687;SDS011;27371;42.686;23.362;2022-12-05T04:47:40;12.23;;;8.50;;
41687;SDS011;27371;42.686;23.362;2022-12-05T04:50:09;13.00;;;8.85;;
41687;SDS011;27371;42.686;23.362;2022-12-05T04:52:37;14.30;;;8.45;;
41687;SDS011;27371;42.686;23.362;2022-12-05T04:55:14;15.52;;;9.05;;
41687;SDS011;27371;42.686;23.362;2022-12-05T04:57:48;13.27;;;8.23;;
41687;SDS011;27371;42.686;23.362;2022-12-05T05:00:16;11.80;;;7.85;;
41687;SDS011;27371;42.686;23.362;2022-12-05T05:02:44;12.57;;;7.85;;
41687;SDS011;27371;42.686;23.362;2022-12-05T05:05:20;13.50;;;8.13;;
41687;SDS011;27371;42.686;23.362;2022-12-05T05:07:48;14.45;;;8.50;;
41687;SDS011;27371;42.686;23.362;2022-12-05T05:10:17;14.13;;;8.10;;
41687;SDS011;27371;42.686;23.362;2022-12-05T05:12:46;13.38;;;8.85;;
41687;SDS011;27371;42.686;23.362;2022-12-05T05:15:12;12.98;;;8.95;;
41687;SDS011;27371;42.686;23.362;2022-12-05T05:17:37;16.58;;;9.98;;
41687;SDS011;27371;42.686;23.362;2022-12-05T05:20:03;15.15;;;9.32;;
41687;SDS011;27371;42.686;23.362;2022-12-05T05:22:48;15.45;;;9.68;;
41687;SDS011;27371;42.686;23.362;2022-12-05T05:25:14;15.52;;;9.65;;
41687;SDS011;27371;42.686;23.362;2022-12-05T05:27:40;14.32;;;9.27;;
41687;SDS011;27371;42.686;23.362;2022-12-05T05:30:05;15.88;;;9.27;;
41687;SDS011;27371;42.686;23.362;2022-12-05T05:32:31;15.20;;;9.57;;
41687;SDS011;27371;42.686;23.362;2022-12-05T05:34:57;15.43;;;9.20;;
41687;SDS011;27371;42.686;23.362;2022-12-05T05:37:23;17.33;;;9.13;;
41687;SDS011;27371;42.686;23.362;2022-12-05T05:39:48;16.25;;;9.27;;
41687;SDS011;27371;42.686;23.362;2022-12-05T05:42:14;14.95;;;9.05;;
41687;SDS011;27371;42.686;23.362;2022-12-05T05:44:39;16.48;;;9.15;;
41687;SDS011;27371;42.686;23.362;2022-12-05T05:47:05;16.23;;;9.48;;
41687;SDS011;27371;42.686;23.362;2022-12-05T05:49:30;14.52;;;8.45;;
41687;SDS011;27371;42.686;23.362;2022-12-05T05:51:56;13.63;;;8.05;;
41687;SDS011;27371;42.686;23.362;2022-12-05T05:54:21;15.80;;;8.95;;
41687;SDS011;27371;42.686;23.362;2022-12-05T05:56:47;14.60;;;9.60;;
41687;SDS011;27371;42.686;23.362;2022-12-05T05:59:12;14.82;;;9.05;;
41687;SDS011;27371;42.686;23.362;2022-12-05T06:01:38;14.25;;;8.73;;
41687;SDS011;27371;42.686;23.362;2022-12-05T06:04:03;15.80;;;9.10;;
41687;SDS011;27371;42.686;23.362;2022-12-05T06:06:29;14.98;;;9.43;;
41687;SDS011;27371;42.686;23.362;2022-12-05T06:08:54;14.85;;;8.82;;
41687;SDS011;27371;42.686;23.362;2022-12-05T06:11:22;17.65;;;8.82;;
41687;SDS011;27371;42.686;23.362;2022-12-05T06:13:48;13.95;;;8.35;;
41687;SDS011;27371;42.686;23.362;2022-12-05T06:16:14;16.63;;;9.57;;
41687;SDS011;27371;42.686;23.362;2022-12-05T06:18:42;18.65;;;9.52;;
41687;SDS011;27371;42.686;23.362;2022-12-05T06:21:09;14.05;;;8.98;;
41687;SDS011;27371;42.686;23.362;2022-12-05T06:23:35;14.63;;;8.88;;
41687;SDS011;27371;42.686;23.362;2022-12-05T06:26:02;14.70;;;9.27;;
41687;SDS011;27371;42.686;23.362;2022-12-05T06:28:29;16.42;;;8.95;;
41687;SDS011;27371;42.686;23.362;2022-12-05T06:30:54;14.52;;;9.63;;
41687;SDS011;27371;42.686;23.362;2022-12-05T06:33:20;20.27;;;9.07;;
41687;SDS011;27371;42.686;23.362;2022-12-05T06:35:46;15.18;;;8.30;;
41687;SDS011;27371;42.686;23.362;2022-12-05T06:38:11;12.60;;;7.70;;
41687;SDS011;27371;42.686;23.362;2022-12-05T06:40:41;11.57;;;7.45;;
41687;SDS011;27371;42.686;23.362;2022-12-05T06:43:07;11.15;;;7.90;;
41687;SDS011;27371;42.686;23.362;2022-12-05T06:45:33;13.57;;;8.38;;
41687;SDS011;27371;42.686;23.362;2022-12-05T06:47:58;14.32;;;8.70;;
41687;SDS011;27371;42.686;23.362;2022-12-05T06:50:24;14.18;;;8.45;;
41687;SDS011;27371;42.686;23.362;2022-12-05T06:52:50;14.35;;;8.60;;
41687;SDS011;27371;42.686;23.362;2022-12-05T06:55:15;15.43;;;7.70;;
41687;SDS011;27371;42.686;23.362;2022-12-05T06:57:41;14.82;;;8.60;;
41687;SDS011;27371;42.686;23.362;2022-12-05T07:00:07;13.30;;;8.43;;
41687;SDS011;27371;42.686;23.362;2022-12-05T07:02:51;11.85;;;7.70;;
41687;SDS011;27371;42.686;23.362;2022-12-05T07:05:18;12.75;;;8.68;;
41687;SDS011;27371;42.686;23.362;2022-12-05T07:07:43;16.67;;;9.45;;
41687;SDS011;27371;42.686;23.362;2022-12-05T07:10:09;15.52;;;9.30;;
41687;SDS011;27371;42.686;23.362;2022-12-05T07:12:35;13.13;;;9.27;;
41687;SDS011;27371;42.686;23.362;2022-12-05T07:15:00;16.55;;;9.55;;
41687;SDS011;27371;42.686;23.362;2022-12-05T07:17:26;17.13;;;9.68;;
41687;SDS011;27371;42.686;23.362;2022-12-05T07:19:51;16.58;;;9.80;;
41687;SDS011;27371;42.686;23.362;2022-12-05T07:22:17;21.48;;;10.77;;
41687;SDS011;27371;42.686;23.362;2022-12-05T07:24:44;13.55;;;9.38;;
41687;SDS011;27371;42.686;23.362;2022-12-05T07:27:11;13.43;;;9.80;;
41687;SDS011;27371;42.686;23.362;2022-12-05T07:29:37;15.50;;;9.70;;
41687;SDS011;27371;42.686;23.362;2022-12-05T07:32:02;14.27;;;9.65;;
41687;SDS011;27371;42.686;23.362;2022-12-05T07:34:28;17.30;;;10.80;;
41687;SDS011;27371;42.686;23.362;2022-12-05T07:36:54;15.18;;;9.93;;
41687;SDS011;27371;42.686;23.362;2022-12-05T07:39:19;19.58;;;9.90;;
41687;SDS011;27371;42.686;23.362;2022-12-05T07:41:45;14.77;;;9.57;;
41687;SDS011;27371;42.686;23.362;2022-12-05T07:44:11;16.02;;;9.88;;
41687;SDS011;27371;42.686;23.362;2022-12-05T07:46:37;13.82;;;8.80;;
41687;SDS011;27371;42.686;23.362;2022-12-05T07:49:03;14.07;;;9.43;;
41687;SDS011;27371;42.686;23.362;2022-12-05T07:51:29;14.85;;;10.57;;
41687;SDS011;27371;42.686;23.362;2022-12-05T07:53:54;19.70;;;10.80;;
41687;SDS011;27371;42.686;23.362;2022-12-05T07:56:20;16.08;;;11.15;;
41687;SDS011;27371;42.686;23.362;2022-12-05T07:58:46;15.20;;;10.13;;
41687;SDS011;27371;42.686;23.362;2022-12-05T08:01:14;18.15;;;11.63;;
41687;SDS011;27371;42.686;23.362;2022-12-05T08:03:42;16.88;;;11.77;;
41687;SDS011;27371;42.686;23.362;2022-12-05T08:06:09;15.93;;;10.52;;
41687;SDS011;27371;42.686;23.362;2022-12-05T08:08:37;17.70;;;11.00;;
41687;SDS011;27371;42.686;23.362;2022-12-05T08:11:08;17.70;;;11.35;;
41687;SDS011;27371;42.686;23.362;2022-12-05T08:13:35;17.63;;;13.30;;
41687;SDS011;27371;42.686;23.362;2022-12-05T08:16:05;15.73;;;8.90;;
41687;SDS011;27371;42.686;23.362;2022-12-05T08:18:32;16.13;;;9.13;;
41687;SDS011;27371;42.686;23.362;2022-12-05T08:21:01;12.57;;;8.05;;
41687;SDS011;27371;42.686;23.362;2022-12-05T08:23:32;11.00;;;7.55;;
41687;SDS011;27371;42.686;23.362;2022-12-05T08:26:02;9.70;;;6.47;;
41687;SDS011;27371;42.686;23.362;2022-12-05T08:28:29;11.80;;;7.60;;
41687;SDS011;27371;42.686;23.362;2022-12-05T08:30:55;11.68;;;7.97;;
41687;SDS011;27371;42.686;23.362;2022-12-05T08:33:20;11.60;;;7.97;;
41687;SDS011;27371;42.686;23.362;2022-12-05T08:35:46;12.30;;;8.98;;
41687;SDS011;27371;42.686;23.362;2022-12-05T08:38:11;14.00;;;9.45;;
41687;SDS011;27371;42.686;23.362;2022-12-05T08:40:37;13.50;;;8.15;;
41687;SDS011;27371;42.686;23.362;2022-12-05T08:43:02;10.63;;;7.15;;
41687;SDS011;27371;42.686;23.362;2022-12-05T08:45:28;9.73;;;6.65;;
41687;SDS011;27371;42.686;23.362;2022-12-05T08:47:53;13.27;;;7.60;;
41687;SDS011;27371;42.686;23.362;2022-12-05T08:50:19;12.32;;;8.65;;
41687;SDS011;27371;42.686;23.362;2022-12-05T08:52:44;10.98;;;6.93;;
41687;SDS011;27371;42.686;23.362;2022-12-05T08:55:10;10.70;;;7.68;;
41687;SDS011;27371;42.686;23.362;2022-12-05T08:57:35;11.23;;;7.22;;
41687;SDS011;27371;42.686;23.362;2022-12-05T09:00:01;12.98;;;8.70;;
41687;SDS011;27371;42.686;23.362;2022-12-05T09:02:26;17.30;;;8.25;;
41687;SDS011;27371;42.686;23.362;2022-12-05T09:04:52;11.80;;;8.23;;
41687;SDS011;27371;42.686;23.362;2022-12-05T09:07:17;12.05;;;7.60;;
41687;SDS011;27371;42.686;23.362;2022-12-05T09:09:43;12.50;;;8.23;;
41687;SDS011;27371;42.686;23.362;2022-12-05T09:12:08;8.98;;;6.30;;
41687;SDS011;27371;42.686;23.362;2022-12-05T09:14:34;7.63;;;5.60;;
41687;SDS011;27371;42.686;23.362;2022-12-05T09:16:59;8.27;;;6.20;;
41687;SDS011;27371;42.686;23.362;2022-12-05T09:19:25;9.30;;;5.88;;
41687;SDS011;27371;42.686;23.362;2022-12-05T09:21:52;9.60;;;6.07;;
41687;SDS011;27371;42.686;23.362;2022-12-05T09:24:18;10.57;;;6.35;;
41687;SDS011;27371;42.686;23.362;2022-12-05T09:26:43;9.43;;;6.25;;
41687;SDS011;27371;42.686;23.362;2022-12-05T09:29:09;8.50;;;5.95;;
41687;SDS011;27371;42.686;23.362;2022-12-05T09:31:36;11.82;;;6.78;;
41687;SDS011;27371;42.686;23.362;2022-12-05T09:34:02;8.80;;;5.50;;
41687;SDS011;27371;42.686;23.362;2022-12-05T09:36:28;7.53;;;5.05;;
41687;SDS011;27371;42.686;23.362;2022-12-05T09:38:58;6.32;;;4.72;;
41687;SDS011;27371;42.686;23.362;2022-12-05T09:47:10;6.30;;;3.67;;
41687;SDS011;27371;42.686;23.362;2022-12-05T09:49:38;5.40;;;3.75;;
41687;SDS011;27371;42.686;23.362;2022-12-05T09:52:18;7.70;;;3.95;;
41687;SDS011;27371;42.686;23.362;2022-12-05T09:54:51;9.48;;;5.07;;
41687;SDS011;27371;42.686;23.362;2022-12-05T09:57:21;7.18;;;4.40;;
41687;SDS011;27371;42.686;23.362;2022-12-05T09:59:56;6.28;;;4.63;;
41687;SDS011;27371;42.686;23.362;2022-12-05T10:05:14;7.78;;;4.80;;
41687;SDS011;27371;42.686;23.362;2022-12-05T10:07:50;6.10;;;4.03;;
41687;SDS011;27371;42.686;23.362;2022-12-05T10:15:55;5.55;;;3.80;;
41687;SDS011;27371;42.686;23.362;2022-12-05T10:18:29;6.38;;;4.45;;
41687;SDS011;27371;42.686;23.362;2022-12-05T10:20:57;5.70;;;4.15;;
41687;SDS011;27371;42.686;23.362;2022-12-05T10:23:34;5.65;;;4.35;;
41687;SDS011;27371;42.686;23.362;2022-12-05T10:26:08;6.22;;;4.30;;
41687;SDS011;27371;42.686;23.362;2022-12-05T10:28:39;11.75;;;5.15;;
41687;SDS011;27371;42.686;23.362;2022-12-05T10:31:14;6.38;;;3.95;;
41687;SDS011;27371;42.686;23.362;2022-12-05T10:33:49;6.10;;;4.20;;
41687;SDS011;27371;42.686;23.362;2022-12-05T10:36:23;7.47;;;5.13;;
41687;SDS011;27371;42.686;23.362;2022-12-05T10:38:49;6.10;;;4.47;;
41687;SDS011;27371;42.686;23.362;2022-12-05T10:41:15;10.05;;;5.60;;
41687;SDS011;27371;42.686;23.362;2022-12-05T10:43:42;6.78;;;4.93;;
41687;SDS011;27371;42.686;23.362;2022-12-05T10:46:09;6.07;;;4.68;;
41687;SDS011;27371;42.686;23.362;2022-12-05T10:48:39;6.22;;;4.53;;
41687;SDS011;27371;42.686;23.362;2022-12-05T10:51:06;7.15;;;4.55;;
41687;SDS011;27371;42.686;23.362;2022-12-05T10:53:49;7.05;;;4.90;;
41687;SDS011;27371;42.686;23.362;2022-12-05T10:59:19;9.18;;;5.15;;
41687;SDS011;27371;42.686;23.362;2022-12-05T11:01:55;6.88;;;4.85;;
41687;SDS011;27371;42.686;23.362;2022-12-05T11:04:24;8.05;;;5.63;;
41687;SDS011;27371;42.686;23.362;2022-12-05T11:09:21;7.60;;;5.15;;
41687;SDS011;27371;42.686;23.362;2022-12-05T11:15:04;10.07;;;5.80;;
41687;SDS011;27371;42.686;23.362;2022-12-05T11:19:57;8.63;;;5.45;;
41687;SDS011;27371;42.686;23.362;2022-12-05T11:22:32;9.05;;;5.90;;
41687;SDS011;27371;42.686;23.362;2022-12-05T11:24:59;7.82;;;6.00;;
41687;SDS011;27371;42.686;23.362;2022-12-05T11:27:29;8.10;;;5.60;;
41687;SDS011;27371;42.686;23.362;2022-12-05T11:30:29;7.32;;;5.38;;
41687;SDS011;27371;42.686;23.362;2022-12-05T11:32:50;6.63;;;5.20;;
41687;SDS011;27371;42.686;23.362;2022-12-05T11:35:36;7.57;;;5.85;;
41687;SDS011;27371;42.686;23.362;2022-12-05T11:38:02;8.05;;;6.22;;
41687;SDS011;27371;42.686;23.362;2022-12-05T11:40:36;9.38;;;6.70;;
41687;SDS011;27371;42.686;23.362;2022-12-05T11:54:22;13.85;;;6.45;;
41687;SDS011;27371;42.686;23.362;2022-12-05T11:56:52;8.98;;;6.32;;
41687;SDS011;27371;42.686;23.362;2022-12-05T12:20:55;13.75;;;8.80;;
41687;SDS011;27371;42.686;23.362;2022-12-05T12:23:32;12.52;;;8.52;;
41687;SDS011;27371;42.686;23.362;2022-12-05T12:39:41;15.50;;;10.38;;
41687;SDS011;27371;42.686;23.362;2022-12-05T12:42:39;19.98;;;10.80;;
41687;SDS011;27371;42.686;23.362;2022-12-05T12:58:34;15.82;;;9.50;;
41687;SDS011;27371;42.686;23.362;2022-12-05T13:06:15;15.85;;;10.88;;
41687;SDS011;27371;42.686;23.362;2022-12-05T13:08:54;18.17;;;11.38;;
41687;SDS011;27371;42.686;23.362;2022-12-05T13:11:23;15.88;;;10.20;;
41687;SDS011;27371;42.686;23.362;2022-12-05T13:13:54;20.13;;;11.25;;
41687;SDS011;27371;42.686;23.362;2022-12-05T13:16:36;20.27;;;11.38;;
41687;SDS011;27371;42.686;23.362;2022-12-05T13:19:05;17.95;;;10.43;;
41687;SDS011;27371;42.686;23.362;2022-12-05T13:21:38;15.05;;;9.93;;
41687;SDS011;27371;42.686;23.362;2022-12-05T13:24:04;17.13;;;10.77;;
41687;SDS011;27371;42.686;23.362;2022-12-05T13:26:35;19.42;;;10.52;;
41687;SDS011;27371;42.686;23.362;2022-12-05T13:29:13;15.45;;;10.52;;
41687;SDS011;27371;42.686;23.362;2022-12-05T13:31:46;15.90;;;9.88;;
41687;SDS011;27371;42.686;23.362;2022-12-05T13:39:50;17.95;;;10.43;;
41687;SDS011;27371;42.686;23.362;2022-12-05T13:42:36;15.05;;;9.73;;
41687;SDS011;27371;42.686;23.362;2022-12-05T13:50:07;17.10;;;9.95;;
41687;SDS011;27371;42.686;23.362;2022-12-05T13:52:48;15.48;;;10.05;;
41687;SDS011;27371;42.686;23.362;2022-12-05T13:57:47;17.67;;;11.13;;
41687;SDS011;27371;42.686;23.362;2022-12-05T14:05:34;15.32;;;9.77;;
41687;SDS011;27371;42.686;23.362;2022-12-05T14:16:36;14.35;;;10.15;;
41687;SDS011;27371;42.686;23.362;2022-12-05T14:30:20;17.25;;;10.65;;
41687;SDS011;27371;42.686;23.362;2022-12-05T14:32:49;22.38;;;11.98;;
41687;SDS011;27371;42.686;23.362;2022-12-05T14:37:54;16.02;;;10.80;;
41687;SDS011;27371;42.686;23.362;2022-12-05T14:40:38;21.42;;;12.32;;
41687;SDS011;27371;42.686;23.362;2022-12-05T14:43:06;18.73;;;11.95;;
41687;SDS011;27371;42.686;23.362;2022-12-05T14:50:42;14.90;;;11.02;;
41687;SDS011;27371;42.686;23.362;2022-12-05T14:53:22;17.75;;;11.05;;
41687;SDS011;27371;42.686;23.362;2022-12-05T15:01:26;21.55;;;13.73;;
41687;SDS011;27371;42.686;23.362;2022-12-05T15:06:34;20.43;;;13.43;;
41687;SDS011;27371;42.686;23.362;2022-12-05T15:09:25;20.35;;;12.55;;
41687;SDS011;27371;42.686;23.362;2022-12-05T15:11:51;24.30;;;13.30;;
41687;SDS011;27371;42.686;23.362;2022-12-05T15:14:19;23.25;;;13.30;;
41687;SDS011;27371;42.686;23.362;2022-12-05T15:16:48;20.90;;;12.90;;
41687;SDS011;27371;42.686;23.362;2022-12-05T15:19:29;20.55;;;13.43;;
41687;SDS011;27371;42.686;23.362;2022-12-05T15:22:02;20.40;;;13.80;;
41687;SDS011;27371;42.686;23.362;2022-12-05T15:24:36;21.80;;;12.68;;
41687;SDS011;27371;42.686;23.362;2022-12-05T15:27:03;16.88;;;12.60;;
41687;SDS011;27371;42.686;23.362;2022-12-05T15:29:30;19.08;;;11.63;;
41687;SDS011;27371;42.686;23.362;2022-12-05T15:36:59;24.05;;;11.85;;
41687;SDS011;27371;42.686;23.362;2022-12-05T15:42:31;18.50;;;12.02;;
41687;SDS011;27371;42.686;23.362;2022-12-05T15:47:42;20.15;;;11.93;;
41687;SDS011;27371;42.686;23.362;2022-12-05T15:50:13;19.00;;;12.40;;
41687;SDS011;27371;42.686;23.362;2022-12-05T15:52:50;21.38;;;12.80;;
41687;SDS011;27371;42.686;23.362;2022-12-05T15:55:44;21.33;;;13.38;;
41687;SDS011;27371;42.686;23.362;2022-12-05T16:00:51;15.90;;;11.32;;
41687;SDS011;27371;42.686;23.362;2022-12-05T16:03:27;15.13;;;10.73;;
41687;SDS011;27371;42.686;23.362;2022-12-05T16:06:05;16.83;;;11.07;;
41687;SDS011;27371;42.686;23.362;2022-12-05T16:08:42;17.73;;;11.60;;
41687;SDS011;27371;42.686;23.362;2022-12-05T16:11:12;17.47;;;11.07;;
41687;SDS011;27371;42.686;23.362;2022-12-05T16:13:58;16.83;;;11.27;;
41687;SDS011;27371;42.686;23.362;2022-12-05T16:16:28;15.35;;;11.07;;
41687;SDS011;27371;42.686;23.362;2022-12-05T16:18:58;15.65;;;10.77;;
41687;SDS011;27371;42.686;23.362;2022-12-05T16:23:59;15.52;;;10.35;;
41687;SDS011;27371;42.686;23.362;2022-12-05T16:26:27;16.33;;;10.52;;
41687;SDS011;27371;42.686;23.362;2022-12-05T16:28:58;15.70;;;10.95;;
41687;SDS011;27371;42.686;23.362;2022-12-05T16:31:26;18.05;;;11.93;;
41687;SDS011;27371;42.686;23.362;2022-12-05T16:34:05;21.50;;;11.82;;
41687;SDS011;27371;42.686;23.362;2022-12-05T16:36:32;14.52;;;10.10;;
41687;SDS011;27371;42.686;23.362;2022-12-05T16:38:59;17.90;;;9.43;;
41687;SDS011;27371;42.686;23.362;2022-12-05T16:41:33;13.93;;;9.90;;
41687;SDS011;27371;42.686;23.362;2022-12-05T16:44:00;16.75;;;9.55;;
41687;SDS011;27371;42.686;23.362;2022-12-05T16:49:13;15.38;;;10.43;;
41687;SDS011;27371;42.686;23.362;2022-12-05T16:51:52;18.02;;;10.82;;
41687;SDS011;27371;42.686;23.362;2022-12-05T16:54:22;17.20;;;11.05;;
41687;SDS011;27371;42.686;23.362;2022-12-05T16:56:48;19.02;;;11.55;;
41687;SDS011;27371;42.686;23.362;2022-12-05T16:59:20;16.40;;;11.57;;
41687;SDS011;27371;42.686;23.362;2022-12-05T17:01:55;19.02;;;12.63;;
41687;SDS011;27371;42.686;23.362;2022-12-05T17:04:20;19.73;;;13.20;;
41687;SDS011;27371;42.686;23.362;2022-12-05T17:06:46;17.17;;;12.30;;
41687;SDS011;27371;42.686;23.362;2022-12-05T17:09:11;21.77;;;12.48;;
41687;SDS011;27371;42.686;23.362;2022-12-05T17:11:38;27.50;;;13.65;;
41687;SDS011;27371;42.686;23.362;2022-12-05T17:14:08;19.80;;;12.23;;
41687;SDS011;27371;42.686;23.362;2022-12-05T17:16:37;19.75;;;13.30;;
41687;SDS011;27371;42.686;23.362;2022-12-05T17:19:03;22.63;;;13.07;;
41687;SDS011;27371;42.686;23.362;2022-12-05T17:21:29;18.17;;;11.80;;
41687;SDS011;27371;42.686;23.362;2022-12-05T17:23:57;18.92;;;12.77;;
41687;SDS011;27371;42.686;23.362;2022-12-05T17:26:26;17.52;;;11.65;;
41687;SDS011;27371;42.686;23.362;2022-12-05T17:28:51;15.93;;;12.05;;
41687;SDS011;27371;42.686;23.362;2022-12-05T17:31:18;17.73;;;11.90;;
41687;SDS011;27371;42.686;23.362;2022-12-05T17:33:49;65.30;;;49.33;;
41687;SDS011;27371;42.686;23.362;2022-12-05T17:36:17;27.95;;;16.83;;
41687;SDS011;27371;42.686;23.362;2022-12-05T17:38:46;18.35;;;12.35;;
41687;SDS011;27371;42.686;23.362;2022-12-05T17:41:13;18.13;;;13.43;;
41687;SDS011;27371;42.686;23.362;2022-12-05T17:43:41;19.33;;;11.98;;
41687;SDS011;27371;42.686;23.362;2022-12-05T17:46:07;18.73;;;12.02;;
41687;SDS011;27371;42.686;23.362;2022-12-05T17:48:33;20.27;;;12.65;;
41687;SDS011;27371;42.686;23.362;2022-12-05T17:50:59;17.55;;;11.70;;
41687;SDS011;27371;42.686;23.362;2022-12-05T17:53:24;22.60;;;12.57;;
41687;SDS011;27371;42.686;23.362;2022-12-05T17:55:50;16.77;;;11.93;;
41687;SDS011;27371;42.686;23.362;2022-12-05T17:58:16;17.25;;;11.10;;
41687;SDS011;27371;42.686;23.362;2022-12-05T18:00:42;16.83;;;11.52;;